createdAt,value
2022-08-11T00:01:13.927Z,19.06
2022-08-11T00:03:48.078Z,19.02
2022-08-11T00:06:27.008Z,18.93
2022-08-11T00:08:56.030Z,19.04
2022-08-11T00:11:34.148Z,18.97
2022-08-11T00:14:04.180Z,18.90
2022-08-11T00:16:34.150Z,18.99
2022-08-11T00:19:03.622Z,19.04
2022-08-11T00:22:05.363Z,18.92
2022-08-11T00:24:53.684Z,18.87
2022-08-11T00:27:34.251Z,18.80
2022-08-11T00:30:03.014Z,18.82
2022-08-11T00:32:31.896Z,18.80
2022-08-11T00:35:56.294Z,18.78
2022-08-11T00:37:53.863Z,18.86
2022-08-11T00:40:29.649Z,18.75
2022-08-11T00:43:20.261Z,18.82
2022-08-11T00:46:07.211Z,18.72
2022-08-11T00:48:46.536Z,18.79
2022-08-11T00:51:26.161Z,18.79
2022-08-11T00:54:07.796Z,18.52
2022-08-11T00:57:36.151Z,18.70
2022-08-11T01:00:07.234Z,18.68
2022-08-11T01:03:02.757Z,18.63
2022-08-11T01:05:52.759Z,18.67
2022-08-11T01:08:57.328Z,18.57
2022-08-11T01:11:55.156Z,18.55
2022-08-11T01:14:47.567Z,18.53
2022-08-11T01:17:54.253Z,18.52
2022-08-11T01:21:08.015Z,18.52
2022-08-11T01:24:28.989Z,18.49
2022-08-11T01:27:19.325Z,18.60
2022-08-11T01:30:18.968Z,18.59
2022-08-11T01:33:20.864Z,18.57
2022-08-11T01:36:24.071Z,18.57
2022-08-11T01:39:43.903Z,18.57
2022-08-11T01:43:08.754Z,18.59
2022-08-11T01:45:43.132Z,18.54
2022-08-11T01:48:23.589Z,18.56
2022-08-11T01:51:31.271Z,18.57
2022-08-11T01:54:05.955Z,18.54
2022-08-11T01:56:45.945Z,18.53
2022-08-11T01:59:22.768Z,18.55
2022-08-11T02:02:04.039Z,18.54
2022-08-11T02:04:37.298Z,18.43
2022-08-11T02:07:15.283Z,18.51
2022-08-11T02:10:25.089Z,18.51
2022-08-11T02:13:14.599Z,18.52
2022-08-11T02:15:48.664Z,18.51
2022-08-11T02:18:24.276Z,18.49
2022-08-11T02:21:15.275Z,18.53
2022-08-11T02:24:07.106Z,18.45
2022-08-11T02:26:42.207Z,18.55
2022-08-11T02:29:20.997Z,18.55
2022-08-11T02:32:33.774Z,18.59
2022-08-11T02:35:11.635Z,18.54
2022-08-11T02:37:50.354Z,18.54
2022-08-11T02:40:31.474Z,18.52
2022-08-11T02:43:15.169Z,18.46
2022-08-11T02:45:58.061Z,18.57
2022-08-11T02:48:55.286Z,18.48
2022-08-11T02:51:34.557Z,18.48
2022-08-11T02:54:12.234Z,18.47
2022-08-11T02:56:52.509Z,18.51
2022-08-11T02:59:47.364Z,18.54
2022-08-11T03:02:28.072Z,18.47
2022-08-11T03:05:08.228Z,18.40
2022-08-11T03:07:49.680Z,18.40
2022-08-11T03:10:23.931Z,18.41
2022-08-11T03:13:15.992Z,18.39
2022-08-11T03:16:07.457Z,18.43
2022-08-11T03:18:44.511Z,18.44
2022-08-11T03:21:23.664Z,18.41
2022-08-11T03:24:01.798Z,18.34
2022-08-11T03:26:38.746Z,18.28
2022-08-11T03:29:12.780Z,18.29
2022-08-11T03:31:56.833Z,18.09
2022-08-11T03:34:27.323Z,18.38
2022-08-11T03:37:16.273Z,18.36
2022-08-11T03:39:57.220Z,18.37
2022-08-11T03:42:33.557Z,18.29
2022-08-11T03:45:08.633Z,18.31
2022-08-11T03:47:54.870Z,18.24
2022-08-11T03:50:44.859Z,18.10
2022-08-11T03:53:22.861Z,18.16
2022-08-11T03:56:25.055Z,18.10
2022-08-11T03:59:20.533Z,18.09
2022-08-11T04:02:24.407Z,18.07
2022-08-11T04:05:19.207Z,18.16
2022-08-11T04:08:14.444Z,18.16
2022-08-11T04:11:10.480Z,18.07
2022-08-11T04:14:30.934Z,18.11
2022-08-11T04:17:37.146Z,18.26
2022-08-11T04:20:24.420Z,18.21
2022-08-11T04:24:35.917Z,18.22
2022-08-11T04:26:37.992Z,18.15
2022-08-11T04:29:20.207Z,18.13
2022-08-11T04:32:05.731Z,18.07
2022-08-11T04:35:10.502Z,18.13
2022-08-11T04:38:03.256Z,18.18
2022-08-11T04:41:05.137Z,18.16
2022-08-11T04:44:06.116Z,18.21
2022-08-11T04:46:55.128Z,18.19
2022-08-11T04:49:54.402Z,18.30
2022-08-11T04:53:01.302Z,18.30
2022-08-11T04:56:22.210Z,18.41
2022-08-11T04:59:27.597Z,18.43
2022-08-11T05:02:25.349Z,18.56
2022-08-11T05:05:22.158Z,18.63
2022-08-11T05:08:43.947Z,18.56
2022-08-11T05:11:46.146Z,18.69
2022-08-11T05:14:52.204Z,18.71
2022-08-11T05:17:46.934Z,18.75
2022-08-11T05:20:33.366Z,18.80
2022-08-11T05:23:25.428Z,18.82
2022-08-11T05:26:47.718Z,18.89
2022-08-11T05:29:24.415Z,18.96
2022-08-11T05:32:17.869Z,18.95
2022-08-11T05:34:53.518Z,19.04
2022-08-11T05:37:27.889Z,19.06
2022-08-11T05:40:24.228Z,19.08
2022-08-11T05:43:15.316Z,19.06
2022-08-11T05:46:05.470Z,19.11
2022-08-11T05:48:55.905Z,19.17
2022-08-11T05:51:54.813Z,19.16
2022-08-11T05:54:41.971Z,19.19
2022-08-11T05:57:49.448Z,19.21
2022-08-11T06:00:01.717Z,19.19
2022-08-11T06:02:30.722Z,19.31
2022-08-11T06:05:02.451Z,19.24
2022-08-11T06:07:47.196Z,19.29
2022-08-11T06:10:28.308Z,19.42
2022-08-11T06:12:58.453Z,19.45
2022-08-11T06:15:28.653Z,19.46
2022-08-11T06:17:59.023Z,19.54
2022-08-11T06:20:36.831Z,19.53
2022-08-11T06:23:08.889Z,19.52
2022-08-11T06:25:38.495Z,19.56
2022-08-11T06:28:08.283Z,19.57
2022-08-11T06:30:42.960Z,19.69
2022-08-11T06:33:14.974Z,19.70
2022-08-11T06:36:01.072Z,19.71
2022-08-11T06:38:43.478Z,19.74
2022-08-11T06:41:33.932Z,19.79
2022-08-11T06:44:16.418Z,19.84
2022-08-11T06:46:48.419Z,19.88
2022-08-11T06:49:36.532Z,19.84
2022-08-11T06:52:32.148Z,19.94
2022-08-11T06:54:58.160Z,19.94
2022-08-11T06:57:43.785Z,19.96
2022-08-11T07:00:32.991Z,19.99
2022-08-11T07:03:08.546Z,20.02
2022-08-11T07:05:46.451Z,20.06
2022-08-11T07:09:08.234Z,20.09
2022-08-11T07:12:21.221Z,20.15
2022-08-11T07:15:10.840Z,20.23
2022-08-11T07:17:49.893Z,20.27
2022-08-11T07:20:37.551Z,20.30
2022-08-11T07:23:43.321Z,20.24
2022-08-11T07:26:33.226Z,20.28
2022-08-11T07:29:04.421Z,20.31
2022-08-11T07:31:37.303Z,20.37
2022-08-11T07:34:19.603Z,20.22
2022-08-11T07:36:52.868Z,20.46
2022-08-11T07:39:25.505Z,20.56
2022-08-11T07:41:58.429Z,20.54
2022-08-11T07:44:34.608Z,20.64
2022-08-11T07:47:36.252Z,20.61
2022-08-11T07:50:21.922Z,20.57
2022-08-11T07:52:52.821Z,20.54
2022-08-11T07:55:50.280Z,20.56
2022-08-11T07:58:45.033Z,20.49
2022-08-11T08:01:40.324Z,20.56
2022-08-11T08:04:29.590Z,20.71
2022-08-11T08:07:16.463Z,20.80
2022-08-11T08:10:03.675Z,20.54
2022-08-11T08:12:50.354Z,20.89
2022-08-11T08:15:37.003Z,21.30
2022-08-11T08:18:26.273Z,22.07
2022-08-11T08:21:12.186Z,22.51
2022-08-11T08:23:42.088Z,23.15
2022-08-11T08:26:28.516Z,23.66
2022-08-11T08:29:18.628Z,23.85
2022-08-11T08:31:48.689Z,23.58
2022-08-11T08:34:19.745Z,23.68
2022-08-11T08:36:49.992Z,23.41
2022-08-11T08:39:21.895Z,23.28
2022-08-11T08:41:54.277Z,23.26
2022-08-11T08:44:41.382Z,23.43
2022-08-11T08:47:14.473Z,23.66
2022-08-11T08:49:49.516Z,23.85
2022-08-11T08:52:30.934Z,23.93
2022-08-11T08:55:06.628Z,23.86
2022-08-11T08:57:37.311Z,23.22
2022-08-11T09:00:19.393Z,23.12
2022-08-11T09:02:51.457Z,23.00
2022-08-11T09:05:21.821Z,23.46
2022-08-11T09:07:58.272Z,23.60
2022-08-11T09:10:27.355Z,23.66
2022-08-11T09:12:57.380Z,23.70
2022-08-11T09:15:26.320Z,23.93
2022-08-11T09:18:03.735Z,23.99
2022-08-11T09:20:35.595Z,23.84
2022-08-11T09:26:32.035Z,23.53
2022-08-11T09:29:01.774Z,23.22
2022-08-11T09:31:39.031Z,23.15
2022-08-11T09:34:09.377Z,23.34
2022-08-11T09:36:57.744Z,23.00
2022-08-11T09:39:44.884Z,22.90
2022-08-11T09:42:16.378Z,22.94
2022-08-11T09:44:48.836Z,23.19
2022-08-11T09:47:24.764Z,23.38
2022-08-11T09:50:00.356Z,23.75
2022-08-11T09:52:32.517Z,23.44
2022-08-11T09:55:02.407Z,23.06
2022-08-11T09:57:48.289Z,23.17
2022-08-11T10:00:17.490Z,23.25
2022-08-11T10:02:48.628Z,23.40
2022-08-11T10:05:37.151Z,23.89
2022-08-11T10:08:08.971Z,23.93
2022-08-11T10:10:39.236Z,24.13
2022-08-11T10:14:30.573Z,24.15
2022-08-11T10:16:15.268Z,24.03
2022-08-11T10:18:53.331Z,24.03
2022-08-11T10:21:35.172Z,23.70
2022-08-11T10:24:25.757Z,23.80
2022-08-11T10:27:00.110Z,24.13
2022-08-11T10:29:51.198Z,24.04
2022-08-11T10:32:58.939Z,24.29
2022-08-11T10:35:29.650Z,24.50
2022-08-11T10:38:07.413Z,24.50
2022-08-11T10:41:08.266Z,24.45
2022-08-11T10:44:01.936Z,24.54
2022-08-11T10:46:44.915Z,24.33
2022-08-11T10:49:13.627Z,24.14
2022-08-11T10:52:00.313Z,24.20
2022-08-11T10:54:46.722Z,24.09
2022-08-11T10:57:36.130Z,24.08
2022-08-11T11:00:07.107Z,24.08
2022-08-11T11:02:36.204Z,24.00
2022-08-11T11:05:11.471Z,23.94
2022-08-11T11:07:44.735Z,23.99
2022-08-11T11:10:13.074Z,23.87
2022-08-11T11:13:03.057Z,23.82
2022-08-11T11:15:51.224Z,23.79
2022-08-11T11:18:22.798Z,23.62
2022-08-11T11:20:58.059Z,23.74
2022-08-11T11:23:34.246Z,23.62
2022-08-11T11:26:39.927Z,23.41
2022-08-11T11:29:46.153Z,23.49
2022-08-11T11:32:28.467Z,23.37
2022-08-11T11:35:11.443Z,23.58
2022-08-11T11:37:42.052Z,23.49
2022-08-11T11:40:31.606Z,23.51
2022-08-11T11:43:01.605Z,23.58
2022-08-11T11:45:31.646Z,23.60
2022-08-11T11:48:02.421Z,23.48
2022-08-11T11:50:34.570Z,23.40
2022-08-11T11:53:05.698Z,23.55
2022-08-11T11:55:34.746Z,23.72
2022-08-11T11:58:33.723Z,23.57
2022-08-11T12:01:20.231Z,23.54
2022-08-11T12:03:52.201Z,23.65
2022-08-11T12:06:22.737Z,23.76
2022-08-11T12:08:59.260Z,23.97
2022-08-11T12:11:53.635Z,23.90
2022-08-11T12:14:25.896Z,23.92
2022-08-11T12:16:57.446Z,23.90
2022-08-11T12:19:35.889Z,23.96
2022-08-11T12:22:22.113Z,23.91
2022-08-11T12:25:07.857Z,23.73
2022-08-11T12:27:38.903Z,23.87
2022-08-11T12:30:09.628Z,24.07
2022-08-11T12:32:41.450Z,23.96
2022-08-11T12:35:11.593Z,23.87
2022-08-11T12:37:43.747Z,24.02
2022-08-11T12:40:43.549Z,24.20
2022-08-11T12:43:41.267Z,24.14
2022-08-11T12:46:11.403Z,24.18
2022-08-11T12:49:04.327Z,24.27
2022-08-11T12:52:10.996Z,24.30
2022-08-11T12:54:51.794Z,24.13
2022-08-11T12:57:44.621Z,24.24
2022-08-11T13:00:31.374Z,24.41
2022-08-11T13:03:18.182Z,24.37
2022-08-11T13:05:50.836Z,24.46
2022-08-11T13:08:21.290Z,24.47
2022-08-11T13:11:10.186Z,24.57
2022-08-11T13:13:55.042Z,24.62
2022-08-11T13:16:27.985Z,24.50
2022-08-11T13:18:59.844Z,24.59
2022-08-11T13:21:30.131Z,24.84
2022-08-11T13:24:00.635Z,24.70
2022-08-11T13:26:48.620Z,24.21
2022-08-11T13:29:23.278Z,24.57
2022-08-11T13:31:52.972Z,24.74
2022-08-11T13:34:22.650Z,24.92
2022-08-11T13:36:55.134Z,24.94
2022-08-11T13:39:25.131Z,24.96
2022-08-11T13:41:56.928Z,25.18
2022-08-11T13:44:29.083Z,25.23
2022-08-11T13:47:01.816Z,25.05
2022-08-11T13:49:32.238Z,24.95
2022-08-11T13:52:03.665Z,25.01
2022-08-11T13:54:36.518Z,25.06
2022-08-11T13:57:09.002Z,25.00
2022-08-11T13:59:44.312Z,25.04
2022-08-11T14:02:29.055Z,25.07
2022-08-11T14:05:00.503Z,25.17
2022-08-11T14:07:36.529Z,25.13
2022-08-11T14:10:07.910Z,24.96
2022-08-11T14:12:56.117Z,25.11
2022-08-11T14:15:29.187Z,25.18
2022-08-11T14:18:03.721Z,25.01
2022-08-11T14:20:54.250Z,24.97
2022-08-11T14:23:28.229Z,24.89
2022-08-11T14:26:15.248Z,24.85
2022-08-11T14:28:45.267Z,24.81
2022-08-11T14:31:15.853Z,24.79
2022-08-11T14:33:59.662Z,24.88
2022-08-11T14:36:33.230Z,24.90
2022-08-11T14:39:07.044Z,24.81
2022-08-11T14:42:10.484Z,25.00
2022-08-11T14:45:01.828Z,24.93
2022-08-11T14:47:32.823Z,25.06
2022-08-11T14:50:10.941Z,25.12
2022-08-11T14:52:46.058Z,25.02
2022-08-11T14:55:34.097Z,24.90
2022-08-11T14:58:03.629Z,25.00
2022-08-11T15:00:34.584Z,25.04
2022-08-11T15:03:13.973Z,25.17
2022-08-11T15:05:56.319Z,25.06
2022-08-11T15:08:49.688Z,25.03
2022-08-11T15:11:39.530Z,24.97
2022-08-11T15:14:11.047Z,24.99
2022-08-11T15:17:00.293Z,24.91
2022-08-11T15:19:40.716Z,24.88
2022-08-11T15:22:28.493Z,25.12
2022-08-11T15:24:58.595Z,25.12
2022-08-11T15:27:48.743Z,25.14
2022-08-11T15:30:35.519Z,25.05
2022-08-11T15:33:24.772Z,25.01
2022-08-11T15:36:11.746Z,24.94
2022-08-11T15:38:45.693Z,24.98
2022-08-11T15:41:36.323Z,25.02
2022-08-11T15:44:51.348Z,24.99
2022-08-11T15:47:20.427Z,24.87
2022-08-11T15:50:11.614Z,25.09
2022-08-11T15:52:48.511Z,25.13
2022-08-11T15:55:19.021Z,25.08
2022-08-11T15:58:08.100Z,24.97
2022-08-11T16:00:59.036Z,24.70
2022-08-11T16:04:07.635Z,24.62
2022-08-11T16:06:40.395Z,24.60
2022-08-11T16:09:18.410Z,24.63
2022-08-11T16:11:48.686Z,24.64
2022-08-11T16:14:36.561Z,24.58
2022-08-11T16:17:08.604Z,24.64
2022-08-11T16:19:41.232Z,24.76
2022-08-11T16:22:12.410Z,24.59
2022-08-11T16:26:30.362Z,24.45
2022-08-11T16:27:37.030Z,24.51
2022-08-11T16:30:07.109Z,24.63
2022-08-11T16:32:40.077Z,24.58
2022-08-11T16:35:29.546Z,24.49
2022-08-11T16:38:16.476Z,24.66
2022-08-11T16:40:46.146Z,24.52
2022-08-11T16:43:35.869Z,24.53
2022-08-11T16:46:32.379Z,24.35
2022-08-11T16:49:05.808Z,24.26
2022-08-11T16:51:34.882Z,24.12
2022-08-11T16:54:04.696Z,24.14
2022-08-11T16:56:38.829Z,24.21
2022-08-11T16:59:15.844Z,24.25
2022-08-11T17:01:49.569Z,24.28
2022-08-11T17:04:43.878Z,24.28
2022-08-11T17:07:42.336Z,24.17
2022-08-11T17:10:52.510Z,24.05
2022-08-11T17:13:29.628Z,23.93
2022-08-11T17:16:09.750Z,23.90
2022-08-11T17:18:50.339Z,23.83
2022-08-11T17:21:27.529Z,23.63
2022-08-11T17:23:59.267Z,23.68
2022-08-11T17:26:53.101Z,23.45
2022-08-11T17:29:26.099Z,23.37
2022-08-11T17:32:13.846Z,23.23
2022-08-11T17:35:03.667Z,23.23
2022-08-11T17:37:38.130Z,23.23
2022-08-11T17:40:12.669Z,23.13
2022-08-11T17:43:02.629Z,23.11
2022-08-11T17:45:51.887Z,23.09
2022-08-11T17:48:27.062Z,23.09
2022-08-11T17:50:57.592Z,23.01
2022-08-11T17:54:13.416Z,22.99
2022-08-11T17:56:54.011Z,22.97
2022-08-11T17:59:39.983Z,22.98
2022-08-11T18:02:37.189Z,22.99
2022-08-11T18:05:12.955Z,23.00
2022-08-11T18:08:02.104Z,22.97
2022-08-11T18:10:51.377Z,22.70
2022-08-11T18:13:42.256Z,22.68
2022-08-11T18:16:29.380Z,22.61
2022-08-11T18:19:15.562Z,22.72
2022-08-11T18:22:14.432Z,22.55
2022-08-11T18:25:06.487Z,22.48
2022-08-11T18:27:55.138Z,22.56
2022-08-11T18:30:42.835Z,22.42
2022-08-11T18:36:42.211Z,22.30
2022-08-11T18:39:30.856Z,22.30
2022-08-11T18:42:29.251Z,22.29
2022-08-11T18:45:20.668Z,22.22
2022-08-11T18:48:09.254Z,22.23
2022-08-11T18:51:30.865Z,22.17
2022-08-11T18:54:13.457Z,22.17
2022-08-11T18:57:00.921Z,22.13
2022-08-11T18:59:50.262Z,21.81
2022-08-11T19:02:48.453Z,21.97
2022-08-11T19:06:08.328Z,21.87
2022-08-11T19:08:47.121Z,22.00
2022-08-11T19:11:33.724Z,21.97
2022-08-11T19:14:20.714Z,21.82
2022-08-11T19:17:08.465Z,21.71
2022-08-11T19:19:59.290Z,21.60
2022-08-11T19:22:48.603Z,21.57
2022-08-11T19:25:37.178Z,21.44
2022-08-11T19:28:25.909Z,21.44
2022-08-11T19:31:13.027Z,21.34
2022-08-11T19:34:09.742Z,21.39
2022-08-11T19:37:01.684Z,21.29
2022-08-11T19:39:49.384Z,21.29
2022-08-11T19:42:35.846Z,21.25
2022-08-11T19:45:23.281Z,21.25
2022-08-11T19:48:30.590Z,21.15
2022-08-11T19:51:16.776Z,21.16
2022-08-11T19:54:04.536Z,21.06
2022-08-11T19:56:52.013Z,21.06
2022-08-11T19:59:39.456Z,21.04
2022-08-11T20:02:28.510Z,20.96
2022-08-11T20:05:14.638Z,20.94
2022-08-11T20:08:01.420Z,20.97
2022-08-11T20:10:53.227Z,20.86
2022-08-11T20:13:42.544Z,20.81
2022-08-11T20:16:31.187Z,20.92
2022-08-11T20:19:20.022Z,20.87
2022-08-11T20:22:14.352Z,20.92
2022-08-11T20:25:03.304Z,20.86
2022-08-11T20:27:55.571Z,20.91
2022-08-11T20:30:41.861Z,20.84
2022-08-11T20:33:28.737Z,20.80
2022-08-11T20:36:14.505Z,20.76
2022-08-11T20:39:02.635Z,20.70
2022-08-11T20:41:59.161Z,20.49
2022-08-11T20:44:48.697Z,20.53
2022-08-11T20:47:59.134Z,20.53
2022-08-11T20:50:45.935Z,20.57
2022-08-11T20:53:36.076Z,20.52
2022-08-11T20:56:28.822Z,20.55
2022-08-11T20:59:18.746Z,20.58
2022-08-11T21:02:09.908Z,20.44
2022-08-11T21:04:57.522Z,20.55
2022-08-11T21:07:55.603Z,20.46
2022-08-11T21:10:51.256Z,20.29
2022-08-11T21:13:39.555Z,20.42
2022-08-11T21:16:32.385Z,20.42
2022-08-11T21:19:59.481Z,20.33
2022-08-11T21:22:37.698Z,20.47
2022-08-11T21:25:25.621Z,20.40
2022-08-11T21:28:13.476Z,20.40
2022-08-11T21:30:59.711Z,20.43
2022-08-11T21:33:46.699Z,20.40
2022-08-11T21:36:33.692Z,20.35
2022-08-11T21:39:24.911Z,20.21
2022-08-11T21:42:12.751Z,20.25
2022-08-11T21:45:00.568Z,20.23
2022-08-11T21:47:46.942Z,20.18
2022-08-11T21:50:35.397Z,20.22
2022-08-11T21:53:22.572Z,20.20
2022-08-11T21:56:10.529Z,20.20
2022-08-11T21:58:58.084Z,20.01
2022-08-11T22:01:53.489Z,20.05
2022-08-11T22:04:40.094Z,20.08
2022-08-11T22:07:27.233Z,20.03
2022-08-11T22:10:41.540Z,19.98
2022-08-11T22:13:20.079Z,19.88
2022-08-11T22:16:06.106Z,19.76
2022-08-11T22:18:53.900Z,19.74
2022-08-11T22:22:01.216Z,19.88
2022-08-11T22:24:47.487Z,19.87
2022-08-11T22:27:35.550Z,20.03
2022-08-11T22:30:21.345Z,19.98
2022-08-11T22:33:07.304Z,19.93
2022-08-11T22:35:54.401Z,19.87
2022-08-11T22:38:40.553Z,19.88
2022-08-11T22:41:26.425Z,19.80
2022-08-11T22:44:13.572Z,19.64
2022-08-11T22:47:01.060Z,19.75
2022-08-11T22:49:58.275Z,19.80
2022-08-11T22:52:46.736Z,19.77
2022-08-11T22:55:33.036Z,19.72
2022-08-11T22:58:20.596Z,19.77
2022-08-11T23:01:08.186Z,19.71
2022-08-11T23:03:55.342Z,19.54
2022-08-11T23:06:41.702Z,19.65
2022-08-11T23:09:28.555Z,19.69
2022-08-11T23:12:14.034Z,19.74
2022-08-11T23:15:00.172Z,19.74
2022-08-11T23:17:47.477Z,19.64
2022-08-11T23:20:36.133Z,19.61
2022-08-11T23:23:38.977Z,19.58
2022-08-11T23:26:25.984Z,19.55
2022-08-11T23:29:15.217Z,19.63
2022-08-11T23:32:01.890Z,19.63
2022-08-11T23:35:03.431Z,19.47
2022-08-11T23:37:51.664Z,19.58
2022-08-11T23:40:37.215Z,19.51
2022-08-11T23:43:23.750Z,19.53
2022-08-11T23:46:09.290Z,19.41
2022-08-11T23:48:56.540Z,19.42
2022-08-11T23:51:44.652Z,19.36
2022-08-11T23:54:36.603Z,19.34
2022-08-11T23:57:23.611Z,19.28
